createdAt,value
2023-01-30T00:04:00.938Z,100295.41
2023-01-30T00:10:03.361Z,100314.31
2023-01-30T00:16:08.722Z,100307.72
2023-01-30T00:22:11.293Z,100298.94
2023-01-30T00:28:13.823Z,100296.97
2023-01-30T00:34:15.866Z,100157.88
2023-01-30T00:40:20.805Z,100247.34
2023-01-30T00:46:59.287Z,100300.72
2023-01-30T00:53:01.777Z,100274.63
2023-01-30T00:59:07.240Z,100281.75
2023-01-30T01:05:09.687Z,100276.75
2023-01-30T01:11:26.201Z,100170.22
2023-01-30T01:17:28.653Z,100246.03
2023-01-30T01:23:31.103Z,100127.13
2023-01-30T01:29:33.576Z,100228.16
2023-01-30T01:35:36.049Z,100214.13
2023-01-30T01:41:38.494Z,100209.00
2023-01-30T01:47:58.020Z,100232.53
2023-01-30T01:54:10.485Z,100218.13
2023-01-30T02:00:16.013Z,100221.44
2023-01-30T02:06:19.426Z,100197.63
2023-01-30T02:12:21.897Z,100088.66
2023-01-30T02:18:26.970Z,100183.09
2023-01-30T02:24:49.661Z,100171.03
2023-01-30T02:31:00.587Z,100182.53
2023-01-30T02:37:40.984Z,100176.28
2023-01-30T02:44:06.524Z,100150.88
2023-01-30T02:50:15.020Z,100168.59
2023-01-30T02:56:17.471Z,100147.81
2023-01-30T03:02:50.801Z,100138.97
2023-01-30T03:09:08.143Z,100106.78
2023-01-30T03:15:22.092Z,100119.09
2023-01-30T03:21:28.602Z,100124.03
2023-01-30T03:27:31.058Z,100104.59
2023-01-30T03:33:33.546Z,100054.00
2023-01-30T03:39:38.956Z,100108.03
2023-01-30T03:45:41.420Z,100114.19
2023-01-30T03:51:45.691Z,100109.88
2023-01-30T03:57:51.351Z,100103.69
2023-01-30T04:03:57.814Z,100041.88
2023-01-30T04:10:00.349Z,100082.16
2023-01-30T04:16:22.818Z,100072.59
2023-01-30T04:22:27.011Z,100035.28
2023-01-30T04:28:29.708Z,100051.31
2023-01-30T04:34:32.165Z,100050.75
2023-01-30T04:40:34.608Z,100027.94
2023-01-30T04:46:37.072Z,100031.28
2023-01-30T04:52:39.967Z,100031.41
2023-01-30T04:58:41.971Z,100036.00
2023-01-30T05:04:43.738Z,100033.47
2023-01-30T05:10:51.903Z,100025.09
2023-01-30T05:16:55.955Z,100021.53
2023-01-30T05:22:57.875Z,100025.53
2023-01-30T05:29:00.338Z,100034.13
2023-01-30T05:35:02.812Z,100031.09
2023-01-30T05:41:07.469Z,100020.16
2023-01-30T05:47:10.699Z,100007.72
2023-01-30T05:53:15.175Z,100010.69
2023-01-30T05:59:19.638Z,99998.50
2023-01-30T06:05:21.623Z,99996.00
2023-01-30T06:11:25.591Z,99958.53
2023-01-30T06:17:29.959Z,99986.88
2023-01-30T06:23:32.524Z,99981.69
2023-01-30T06:29:35.015Z,99984.38
2023-01-30T06:35:42.469Z,99902.06
2023-01-30T06:41:44.476Z,99956.50
2023-01-30T06:47:54.462Z,99940.72
2023-01-30T06:53:59.848Z,99960.97
2023-01-30T07:00:01.891Z,99966.63
2023-01-30T07:06:03.912Z,99918.56
2023-01-30T07:12:06.237Z,99878.66
2023-01-30T07:18:08.761Z,99930.94
2023-01-30T07:24:11.184Z,99935.50
2023-01-30T07:30:13.653Z,99906.88
2023-01-30T07:36:16.118Z,99920.66
2023-01-30T07:42:18.597Z,99911.56
2023-01-30T07:48:21.085Z,99911.34
2023-01-30T07:54:23.027Z,99864.59
2023-01-30T08:00:25.280Z,99859.59
2023-01-30T08:06:30.439Z,99842.06
2023-01-30T08:12:32.903Z,99858.44
2023-01-30T08:18:36.347Z,99846.19
2023-01-30T08:24:38.077Z,99836.91
2023-01-30T08:30:41.937Z,99805.44
2023-01-30T08:36:49.837Z,99799.41
2023-01-30T08:42:52.275Z,99688.28
2023-01-30T08:48:54.695Z,99765.78
2023-01-30T08:55:06.088Z,99700.38
2023-01-30T09:01:11.074Z,99727.50
2023-01-30T09:07:13.152Z,99717.41
2023-01-30T09:13:22.972Z,99643.28
2023-01-30T09:19:37.226Z,99685.44
2023-01-30T09:25:46.658Z,99685.94
2023-01-30T09:31:55.548Z,99672.50
2023-01-30T09:38:11.038Z,99637.59
2023-01-30T09:44:24.120Z,99623.81
2023-01-30T09:51:00.749Z,99612.34
2023-01-30T09:57:23.251Z,99598.22
2023-01-30T10:03:39.736Z,99583.94
2023-01-30T10:10:24.220Z,99571.00
2023-01-30T10:17:01.768Z,99545.91
2023-01-30T10:23:17.198Z,99528.94
2023-01-30T10:29:30.062Z,99494.00
2023-01-30T10:35:44.542Z,99482.59
2023-01-30T10:42:14.104Z,99472.47
2023-01-30T10:48:46.401Z,99339.63
2023-01-30T10:54:52.484Z,99405.38
2023-01-30T11:01:15.242Z,99412.53
2023-01-30T11:07:25.187Z,99374.28
2023-01-30T11:13:42.230Z,99409.44
2023-01-30T11:19:45.144Z,99388.59
2023-01-30T11:26:09.170Z,99378.00
2023-01-30T11:32:29.494Z,99380.88
2023-01-30T11:38:48.705Z,99337.53
2023-01-30T11:45:17.592Z,99350.50
2023-01-30T11:51:26.809Z,99164.50
2023-01-30T11:57:42.385Z,99299.81
2023-01-30T12:03:55.866Z,99312.00
2023-01-30T12:10:24.208Z,99219.84
2023-01-30T12:17:04.761Z,99271.03
2023-01-30T12:30:58.144Z,99007.47
2023-01-30T12:37:30.038Z,98931.94
2023-01-30T12:44:16.380Z,99204.16
2023-01-30T12:50:32.541Z,99201.06
2023-01-30T12:57:18.116Z,99186.22
2023-01-30T13:03:44.666Z,99176.03
2023-01-30T13:10:52.061Z,99170.28
2023-01-30T13:17:12.683Z,99174.28
2023-01-30T13:23:57.292Z,99158.91
2023-01-30T13:30:12.999Z,99138.88
2023-01-30T13:36:52.177Z,99136.41
2023-01-30T13:43:41.984Z,99093.00
2023-01-30T13:50:12.796Z,99125.84
2023-01-30T13:56:49.856Z,99110.16
2023-01-30T14:03:25.769Z,99003.47
2023-01-30T14:09:37.267Z,99108.13
2023-01-30T14:16:28.638Z,99100.38
2023-01-30T14:22:46.685Z,99118.09
2023-01-30T14:28:59.977Z,98834.50
2023-01-30T14:35:17.173Z,99031.84
2023-01-30T14:41:35.225Z,99108.50
2023-01-30T14:47:46.871Z,99103.00
2023-01-30T14:54:03.358Z,99113.13
2023-01-30T15:00:40.216Z,99116.28
2023-01-30T15:06:50.068Z,99002.41
2023-01-30T15:13:36.874Z,99081.16
2023-01-30T15:20:21.324Z,99091.94
2023-01-30T15:26:52.951Z,99099.78
2023-01-30T15:33:30.863Z,99096.94
2023-01-30T15:39:33.946Z,99090.81
2023-01-30T15:52:18.019Z,99087.16
2023-01-30T15:58:26.392Z,98914.75
2023-01-30T16:04:37.008Z,98959.94
2023-01-30T16:10:51.559Z,98974.13
2023-01-30T16:17:12.513Z,98887.00
2023-01-30T16:23:30.814Z,99068.44
2023-01-30T16:29:57.764Z,98964.69
2023-01-30T16:36:04.963Z,99044.66
2023-01-30T16:42:35.110Z,98755.88
2023-01-30T16:48:41.675Z,98927.59
2023-01-30T16:55:00.170Z,99015.44
2023-01-30T17:01:18.357Z,99029.34
2023-01-30T17:14:18.608Z,99013.06
2023-01-30T17:26:40.704Z,99022.13
2023-01-30T17:32:58.485Z,98906.78
2023-01-30T17:39:00.466Z,98984.78
2023-01-30T17:45:03.318Z,99003.91
2023-01-30T17:51:05.822Z,99026.63
2023-01-30T17:57:12.584Z,99040.41
2023-01-30T18:03:15.808Z,99045.47
2023-01-30T18:09:23.268Z,99052.22
2023-01-30T18:15:26.739Z,99049.94
2023-01-30T18:21:29.189Z,98957.00
2023-01-30T18:27:35.062Z,99048.53
2023-01-30T18:33:38.101Z,99064.81
2023-01-30T18:39:52.036Z,99079.13
2023-01-30T18:46:09.208Z,99087.28
2023-01-30T18:52:17.639Z,98981.97
2023-01-30T18:58:35.799Z,98942.16
2023-01-30T19:04:38.631Z,98951.69
2023-01-30T19:10:41.060Z,99113.94
2023-01-30T19:16:45.997Z,99108.63
2023-01-30T19:22:57.529Z,99085.06
2023-01-30T19:29:01.511Z,99105.97
2023-01-30T19:35:07.970Z,98988.22
2023-01-30T19:41:18.471Z,99108.19
2023-01-30T19:47:30.963Z,99107.97
2023-01-30T19:53:37.430Z,99070.97
2023-01-30T19:59:40.895Z,99087.72
2023-01-30T20:05:45.848Z,99001.31
2023-01-30T20:11:49.832Z,99015.38
2023-01-30T20:18:02.069Z,99010.91
2023-01-30T20:24:20.054Z,98930.91
2023-01-30T20:30:26.285Z,99129.53
2023-01-30T20:36:30.621Z,99120.97
2023-01-30T20:42:36.204Z,99117.31
2023-01-30T20:48:44.070Z,99078.00
2023-01-30T21:01:26.868Z,98997.38
2023-01-30T21:07:29.226Z,99153.19
2023-01-30T21:13:39.423Z,98982.09
2023-01-30T21:19:43.527Z,99139.22
2023-01-30T21:25:46.000Z,99138.94
2023-01-30T21:31:49.923Z,99135.88
2023-01-30T21:38:19.679Z,99151.03
2023-01-30T21:44:30.158Z,99156.09
2023-01-30T21:50:37.952Z,98970.31
2023-01-30T21:56:40.753Z,99118.78
2023-01-30T22:02:56.718Z,99171.34
2023-01-30T22:09:08.043Z,99066.69
2023-01-30T22:15:22.256Z,99124.34
2023-01-30T22:21:29.154Z,99148.34
2023-01-30T22:27:31.975Z,99049.38
2023-01-30T22:33:37.115Z,99147.13
2023-01-30T22:39:39.561Z,99147.69
2023-01-30T22:45:42.042Z,99141.13
2023-01-30T22:51:46.578Z,99136.75
2023-01-30T22:57:59.077Z,99139.44
2023-01-30T23:04:27.616Z,99060.50
2023-01-30T23:10:30.084Z,99017.53
2023-01-30T23:16:48.779Z,99120.56
2023-01-30T23:23:07.894Z,99130.41
2023-01-30T23:29:29.063Z,99131.59
2023-01-30T23:35:50.521Z,99076.13
2023-01-30T23:42:01.303Z,99099.03
2023-01-30T23:48:19.009Z,99128.25
2023-01-30T23:54:33.117Z,99087.06
